createdAt,value
2019-06-08T00:01:16.443Z,57.81
2019-06-08T00:03:47.603Z,57.84
2019-06-08T00:06:18.865Z,57.79
2019-06-08T00:08:49.919Z,57.87
2019-06-08T00:11:21.180Z,57.84
2019-06-08T00:13:52.260Z,57.89
2019-06-08T00:16:23.817Z,57.95
2019-06-08T00:19:01.756Z,57.97
2019-06-08T00:21:32.849Z,57.77
2019-06-08T00:24:03.975Z,57.80
2019-06-08T00:26:35.059Z,57.73
2019-06-08T00:29:06.123Z,57.97
2019-06-08T00:31:37.216Z,58.08
2019-06-08T00:34:08.284Z,57.96
2019-06-08T00:36:39.376Z,57.97
2019-06-08T00:39:10.427Z,57.90
2019-06-08T00:41:41.500Z,57.94
2019-06-08T00:44:12.559Z,58.06
2019-06-08T00:46:43.720Z,58.07
2019-06-08T00:49:14.778Z,58.27
2019-06-08T00:51:45.859Z,58.38
2019-06-08T00:54:17.397Z,58.40
2019-06-08T00:56:48.554Z,58.35
2019-06-08T00:59:19.954Z,58.37
2019-06-08T01:01:51.076Z,58.38
2019-06-08T01:04:22.725Z,58.21
2019-06-08T01:06:53.907Z,58.28
2019-06-08T01:09:26.242Z,58.22
2019-06-08T01:11:57.465Z,58.11
2019-06-08T01:14:29.116Z,58.06
2019-06-08T01:17:00.185Z,58.23
2019-06-08T01:19:32.960Z,58.27
2019-06-08T01:22:04.044Z,58.31
2019-06-08T01:24:36.147Z,58.28
2019-06-08T01:27:07.249Z,58.18
2019-06-08T01:29:38.333Z,58.19
2019-06-08T01:32:09.389Z,58.22
2019-06-08T01:34:40.479Z,58.26
2019-06-08T01:37:11.545Z,58.27
2019-06-08T01:39:50.449Z,58.06
2019-06-08T01:42:21.512Z,57.95
2019-06-08T01:44:52.580Z,58.15
2019-06-08T01:47:24.621Z,57.98
2019-06-08T01:49:55.826Z,57.94
2019-06-08T01:52:33.594Z,58.09
2019-06-08T01:55:06.600Z,58.03
2019-06-08T01:57:37.696Z,58.09
2019-06-08T02:02:42.196Z,57.80
2019-06-08T02:05:16.430Z,57.92
2019-06-08T02:07:47.513Z,57.91
2019-06-08T02:10:19.108Z,57.77
2019-06-08T02:12:50.192Z,57.57
2019-06-08T02:15:21.984Z,57.80
2019-06-08T02:17:53.068Z,57.90
2019-06-08T02:20:28.754Z,57.92
2019-06-08T02:22:59.896Z,57.80
2019-06-08T02:25:31.418Z,57.96
2019-06-08T02:28:02.563Z,57.97
2019-06-08T02:30:37.120Z,58.18
2019-06-08T02:33:07.380Z,58.32
2019-06-08T02:35:45.581Z,58.24
2019-06-08T02:38:16.640Z,58.28
2019-06-08T02:40:47.734Z,58.25
2019-06-08T02:43:18.810Z,58.17
2019-06-08T02:45:49.944Z,58.29
2019-06-08T02:48:21.042Z,58.41
2019-06-08T02:50:57.119Z,58.40
2019-06-08T02:53:29.488Z,58.41
2019-06-08T02:56:02.099Z,58.35
2019-06-08T02:58:37.907Z,58.35
2019-06-08T03:01:08.835Z,58.37
2019-06-08T03:03:46.172Z,58.26
2019-06-08T03:06:20.582Z,58.26
2019-06-08T03:08:52.503Z,58.22
2019-06-08T03:11:23.970Z,58.30
2019-06-08T03:13:58.256Z,58.26
2019-06-08T03:16:31.115Z,58.20
2019-06-08T03:19:19.947Z,58.18
2019-06-08T03:21:37.980Z,58.19
2019-06-08T03:24:08.794Z,58.13
2019-06-08T03:26:41.871Z,58.06
2019-06-08T03:29:12.651Z,58.09
2019-06-08T03:31:54.306Z,58.13
2019-06-08T03:34:16.539Z,58.20
2019-06-08T03:36:55.211Z,58.07
2019-06-08T03:39:20.389Z,58.05
2019-06-08T03:41:51.468Z,57.94
2019-06-08T03:44:22.551Z,57.83
2019-06-08T03:46:53.650Z,58.00
2019-06-08T03:49:41.433Z,58.03
2019-06-08T03:51:57.678Z,58.06
2019-06-08T03:54:28.764Z,58.00
2019-06-08T03:56:59.837Z,57.90
2019-06-08T03:59:30.923Z,57.85
2019-06-08T04:02:02.009Z,57.87
2019-06-08T04:04:33.086Z,57.88
2019-06-08T04:07:04.151Z,57.78
2019-06-08T04:09:35.227Z,57.80
2019-06-08T04:12:06.355Z,57.66
2019-06-08T04:14:39.876Z,57.63
2019-06-08T04:17:11.103Z,57.54
2019-06-08T04:20:05.455Z,57.57
2019-06-08T04:22:14.973Z,57.51
2019-06-08T04:24:46.632Z,57.54
2019-06-08T04:27:17.801Z,57.73
2019-06-08T04:29:50.172Z,57.71
2019-06-08T04:32:21.412Z,57.75
2019-06-08T04:34:52.487Z,57.70
2019-06-08T04:37:23.655Z,57.80
2019-06-08T04:39:54.766Z,57.77
2019-06-08T04:42:25.857Z,57.79
2019-06-08T04:45:07.714Z,57.64
2019-06-08T04:47:40.741Z,57.62
2019-06-08T04:50:22.608Z,57.60
2019-06-08T04:52:44.922Z,57.48
2019-06-08T04:55:16.344Z,57.48
2019-06-08T04:57:48.707Z,57.51
2019-06-08T05:00:21.130Z,57.60
2019-06-08T05:02:52.183Z,57.48
2019-06-08T05:05:23.266Z,57.52
2019-06-08T05:07:54.346Z,57.53
2019-06-08T05:10:25.416Z,57.42
2019-06-08T05:13:02.241Z,57.41
2019-06-08T05:15:33.390Z,57.48
2019-06-08T05:18:04.719Z,57.60
2019-06-08T05:20:39.270Z,57.39
2019-06-08T05:23:08.558Z,57.40
2019-06-08T05:25:39.637Z,57.55
2019-06-08T05:28:10.707Z,57.43
2019-06-08T05:30:47.742Z,57.32
2019-06-08T05:33:18.822Z,57.54
2019-06-08T05:35:49.901Z,57.71
2019-06-08T05:38:20.968Z,57.53
2019-06-08T05:40:52.070Z,57.59
2019-06-08T05:43:23.131Z,57.63
2019-06-08T05:45:54.228Z,57.67
2019-06-08T05:48:25.292Z,57.48
2019-06-08T05:51:03.566Z,57.61
2019-06-08T05:53:29.134Z,57.56
2019-06-08T05:56:00.227Z,57.45
2019-06-08T05:58:31.288Z,57.35
2019-06-08T06:01:02.711Z,57.32
2019-06-08T06:03:33.805Z,57.35
2019-06-08T06:06:04.866Z,57.11
2019-06-08T06:08:35.926Z,57.15
2019-06-08T06:11:07.010Z,57.15
2019-06-08T06:13:38.079Z,57.20
2019-06-08T06:16:09.168Z,57.34
2019-06-08T06:18:41.162Z,57.65
2019-06-08T06:21:12.655Z,57.68
2019-06-08T06:23:45.131Z,57.27
2019-06-08T06:26:16.261Z,57.35
2019-06-08T06:28:47.639Z,57.60
2019-06-08T06:31:18.810Z,57.99
2019-06-08T06:33:50.128Z,57.88
2019-06-08T06:36:21.236Z,58.17
2019-06-08T06:38:52.403Z,58.19
2019-06-08T06:41:23.470Z,58.07
2019-06-08T06:43:54.592Z,58.30
2019-06-08T06:46:25.736Z,57.73
2019-06-08T06:48:56.856Z,57.22
2019-06-08T06:51:28.188Z,57.75
2019-06-08T06:53:59.240Z,57.85
2019-06-08T06:56:30.335Z,57.63
2019-06-08T06:59:01.385Z,56.74
2019-06-08T07:01:32.901Z,57.27
2019-06-08T07:04:04.463Z,56.97
2019-06-08T07:06:35.531Z,56.61
2019-06-08T07:09:07.556Z,56.69
2019-06-08T07:11:38.628Z,56.84
2019-06-08T07:14:09.719Z,56.53
2019-06-08T07:16:40.782Z,56.38
2019-06-08T07:19:11.862Z,55.48
2019-06-08T07:21:42.948Z,55.75
2019-06-08T07:24:14.020Z,55.11
2019-06-08T07:26:46.270Z,54.60
2019-06-08T07:29:17.449Z,54.08
2019-06-08T07:31:49.937Z,53.34
2019-06-08T07:34:21.479Z,53.40
2019-06-08T07:36:55.382Z,53.59
2019-06-08T07:39:26.660Z,54.01
2019-06-08T07:41:57.704Z,54.37
2019-06-08T07:44:28.821Z,53.81
2019-06-08T07:47:00.152Z,53.87
2019-06-08T07:49:31.343Z,53.83
2019-06-08T07:52:10.114Z,52.99
2019-06-08T07:54:35.223Z,52.88
2019-06-08T07:57:06.276Z,52.47
2019-06-08T07:59:37.359Z,52.89
2019-06-08T08:02:08.440Z,52.91
2019-06-08T08:04:39.525Z,52.25
2019-06-08T08:07:10.611Z,52.14
2019-06-08T08:09:41.755Z,52.45
2019-06-08T08:12:12.817Z,51.65
2019-06-08T08:14:43.892Z,51.86
2019-06-08T08:17:15.067Z,51.82
2019-06-08T08:19:46.119Z,51.44
2019-06-08T08:22:22.972Z,51.05
2019-06-08T08:24:52.444Z,51.08
2019-06-08T08:27:22.771Z,51.46
2019-06-08T08:29:53.832Z,51.05
2019-06-08T08:32:24.913Z,50.77
2019-06-08T08:35:05.805Z,50.69
2019-06-08T08:37:38.088Z,50.75
2019-06-08T08:40:09.673Z,51.03
2019-06-08T08:42:40.838Z,50.38
2019-06-08T08:45:12.220Z,50.61
2019-06-08T08:47:43.304Z,50.37
2019-06-08T08:50:14.798Z,50.61
2019-06-08T08:52:47.708Z,50.27
2019-06-08T08:55:20.534Z,50.46
2019-06-08T08:57:52.175Z,49.80
2019-06-08T09:00:24.478Z,50.31
2019-06-08T09:03:16.250Z,50.40
2019-06-08T09:05:28.308Z,50.08
2019-06-08T09:08:02.003Z,50.34
2019-06-08T09:10:32.162Z,50.19
2019-06-08T09:13:04.741Z,49.77
2019-06-08T09:15:37.755Z,49.28
2019-06-08T09:18:08.615Z,48.83
2019-06-08T09:20:39.705Z,48.31
2019-06-08T09:23:16.536Z,47.80
2019-06-08T09:25:48.325Z,47.66
2019-06-08T09:28:18.925Z,47.74
2019-06-08T09:30:49.987Z,47.43
2019-06-08T09:33:21.234Z,47.23
2019-06-08T09:35:53.559Z,46.67
2019-06-08T09:38:25.083Z,46.84
2019-06-08T09:40:59.166Z,47.08
2019-06-08T09:43:29.092Z,46.68
2019-06-08T09:46:02.097Z,47.03
2019-06-08T09:48:32.982Z,47.09
2019-06-08T09:51:05.472Z,47.15
2019-06-08T09:53:40.781Z,46.49
2019-06-08T09:56:10.010Z,46.27
2019-06-08T09:58:41.359Z,45.73
2019-06-08T10:01:12.576Z,45.85
2019-06-08T10:03:43.664Z,45.63
2019-06-08T10:06:14.767Z,45.81
2019-06-08T10:08:47.915Z,46.13
2019-06-08T10:11:18.605Z,45.70
2019-06-08T10:13:49.703Z,45.67
2019-06-08T10:16:20.826Z,45.24
2019-06-08T10:18:55.008Z,45.67
2019-06-08T10:21:28.229Z,45.19
2019-06-08T10:24:00.999Z,47.66
2019-06-08T10:26:31.181Z,45.96
2019-06-08T10:29:04.961Z,45.13
2019-06-08T10:31:39.901Z,44.78
2019-06-08T10:34:10.909Z,44.16
2019-06-08T10:36:41.719Z,44.21
2019-06-08T10:39:12.871Z,43.96
2019-06-08T10:41:45.009Z,43.74
2019-06-08T10:44:18.234Z,43.94
2019-06-08T10:46:48.861Z,43.53
2019-06-08T10:49:20.068Z,43.47
2019-06-08T10:51:51.074Z,43.92
2019-06-08T10:54:22.150Z,43.62
2019-06-08T10:56:53.216Z,43.15
2019-06-08T10:59:24.300Z,43.23
2019-06-08T11:01:55.377Z,43.41
2019-06-08T11:04:28.575Z,43.46
2019-06-08T11:07:05.601Z,43.41
2019-06-08T11:09:32.060Z,43.70
2019-06-08T11:12:03.968Z,43.78
2019-06-08T11:14:38.261Z,43.61
2019-06-08T11:17:10.971Z,43.32
2019-06-08T11:19:41.572Z,43.35
2019-06-08T11:22:14.618Z,43.12
2019-06-08T11:24:45.425Z,43.12
2019-06-08T11:27:18.688Z,42.83
2019-06-08T11:29:49.398Z,42.52
2019-06-08T11:32:20.483Z,42.70
2019-06-08T11:34:51.634Z,42.87
2019-06-08T11:37:22.688Z,42.66
2019-06-08T11:39:53.749Z,42.62
2019-06-08T11:42:27.822Z,42.52
2019-06-08T11:44:58.647Z,42.67
2019-06-08T11:47:30.987Z,42.34
2019-06-08T11:50:06.589Z,42.48
2019-06-08T11:52:38.500Z,42.08
2019-06-08T11:55:13.109Z,41.85
2019-06-08T11:57:44.159Z,41.71
2019-06-08T12:00:27.705Z,41.72
2019-06-08T12:02:57.967Z,41.80
2019-06-08T12:05:29.275Z,41.97
2019-06-08T12:08:02.869Z,41.87
2019-06-08T12:10:33.925Z,42.00
2019-06-08T12:13:05.284Z,41.67
2019-06-08T12:15:38.442Z,41.79
2019-06-08T12:18:11.406Z,41.80
2019-06-08T12:20:42.761Z,41.82
2019-06-08T12:23:14.169Z,41.92
2019-06-08T12:25:45.273Z,42.21
2019-06-08T12:28:17.819Z,42.24
2019-06-08T12:30:49.010Z,41.98
2019-06-08T12:33:22.785Z,42.02
2019-06-08T12:35:52.854Z,41.43
2019-06-08T12:38:23.915Z,41.99
2019-06-08T12:40:54.998Z,42.20
2019-06-08T12:43:28.325Z,42.12
2019-06-08T12:46:00.645Z,41.20
2019-06-08T12:48:31.709Z,41.88
2019-06-08T12:51:02.790Z,41.36
2019-06-08T12:53:33.854Z,41.85
2019-06-08T12:56:05.107Z,41.68
2019-06-08T12:58:38.531Z,41.54
2019-06-08T13:01:09.799Z,41.52
2019-06-08T13:03:41.855Z,42.15
2019-06-08T13:06:14.049Z,42.09
2019-06-08T13:08:47.671Z,41.58
2019-06-08T13:11:19.002Z,41.54
2019-06-08T13:13:50.782Z,41.44
2019-06-08T13:16:24.232Z,41.07
2019-06-08T13:18:54.623Z,40.97
2019-06-08T13:21:34.649Z,40.59
2019-06-08T13:23:58.502Z,40.54
2019-06-08T13:26:31.252Z,40.56
2019-06-08T13:29:02.347Z,40.53
2019-06-08T13:31:33.415Z,40.63
2019-06-08T13:34:04.487Z,40.44
2019-06-08T13:36:35.557Z,40.38
2019-06-08T13:39:09.891Z,40.67
2019-06-08T13:41:40.024Z,40.25
2019-06-08T13:44:11.519Z,40.52
2019-06-08T13:46:42.663Z,40.74
2019-06-08T13:49:14.157Z,41.05
2019-06-08T13:55:36.497Z,40.90
2019-06-08T13:57:51.084Z,41.41
2019-06-08T14:00:38.523Z,41.50
2019-06-08T14:03:10.092Z,41.44
2019-06-08T14:05:41.190Z,41.73
2019-06-08T14:08:12.263Z,41.42
2019-06-08T14:10:43.581Z,41.54
2019-06-08T14:13:15.160Z,41.21
2019-06-08T14:15:54.456Z,40.93
2019-06-08T14:18:29.986Z,40.99
2019-06-08T14:20:59.193Z,40.63
2019-06-08T14:23:30.364Z,40.55
2019-06-08T14:26:01.424Z,40.69
2019-06-08T14:28:34.468Z,40.76
2019-06-08T14:31:08.338Z,40.52
2019-06-08T14:33:38.314Z,40.80
2019-06-08T14:36:09.363Z,40.97
2019-06-08T14:38:42.072Z,41.15
2019-06-08T14:41:13.387Z,40.96
2019-06-08T14:43:44.475Z,40.71
2019-06-08T14:46:15.549Z,40.78
2019-06-08T14:48:46.634Z,40.85
2019-06-08T14:51:18.681Z,40.84
2019-06-08T14:53:49.948Z,41.13
2019-06-08T14:56:21.343Z,41.16
2019-06-08T14:58:52.467Z,41.36
2019-06-08T15:01:25.368Z,41.35
2019-06-08T15:03:58.470Z,40.95
2019-06-08T15:06:33.957Z,40.08
2019-06-08T15:09:01.855Z,39.17
2019-06-08T15:11:35.148Z,38.74
2019-06-08T15:14:08.402Z,39.01
2019-06-08T15:16:41.625Z,38.94
2019-06-08T15:19:11.790Z,39.58
2019-06-08T15:21:42.849Z,39.34
2019-06-08T15:24:13.990Z,39.71
2019-06-08T15:26:48.678Z,39.84
2019-06-08T15:29:20.799Z,39.99
2019-06-08T15:31:51.867Z,40.04
2019-06-08T15:34:23.195Z,39.89
2019-06-08T15:36:54.381Z,39.75
2019-06-08T15:39:26.156Z,39.92
2019-06-08T15:42:00.169Z,39.10
2019-06-08T15:44:32.445Z,39.30
2019-06-08T15:47:03.784Z,38.94
2019-06-08T15:49:34.844Z,39.03
2019-06-08T15:52:05.934Z,39.24
2019-06-08T15:54:40.436Z,39.43
2019-06-08T15:57:09.785Z,39.04
2019-06-08T15:59:41.941Z,39.18
2019-06-08T16:02:13.225Z,39.27
2019-06-08T16:04:44.362Z,39.41
2019-06-08T16:07:16.593Z,39.83
2019-06-08T16:09:47.926Z,39.99
2019-06-08T16:12:18.995Z,39.82
2019-06-08T16:14:50.094Z,39.68
2019-06-08T16:17:21.146Z,39.38
2019-06-08T16:19:53.229Z,39.81
2019-06-08T16:22:25.725Z,39.77
2019-06-08T16:24:56.814Z,39.91
2019-06-08T16:27:28.016Z,39.98
2019-06-08T16:30:00.171Z,39.93
2019-06-08T16:32:31.559Z,39.74
2019-06-08T16:35:02.711Z,39.53
2019-06-08T16:37:33.764Z,39.76
2019-06-08T16:40:08.055Z,39.52
2019-06-08T16:42:39.122Z,39.97
2019-06-08T16:45:11.378Z,40.23
2019-06-08T16:47:43.739Z,39.85
2019-06-08T16:50:24.230Z,39.97
2019-06-08T16:52:47.924Z,39.94
2019-06-08T16:55:19.007Z,40.27
2019-06-08T16:57:50.081Z,40.29
2019-06-08T17:00:40.214Z,40.18
2019-06-08T17:02:54.118Z,40.01
2019-06-08T17:05:25.282Z,40.41
2019-06-08T17:07:56.330Z,40.36
2019-06-08T17:10:27.459Z,40.30
2019-06-08T17:12:58.511Z,40.60
2019-06-08T17:15:30.222Z,40.29
2019-06-08T17:18:02.517Z,40.21
2019-06-08T17:20:34.087Z,40.13
2019-06-08T17:23:05.334Z,40.22
2019-06-08T17:25:36.650Z,40.37
2019-06-08T17:28:07.796Z,40.46
2019-06-08T17:30:39.374Z,40.04
2019-06-08T17:33:10.696Z,40.18
2019-06-08T17:35:42.336Z,40.31
2019-06-08T17:38:13.544Z,40.21
2019-06-08T17:40:44.663Z,40.05
2019-06-08T17:43:15.750Z,40.30
2019-06-08T17:45:46.877Z,40.44
2019-06-08T17:48:17.960Z,40.09
2019-06-08T17:50:50.006Z,40.39
2019-06-08T17:53:21.266Z,40.33
2019-06-08T17:55:52.364Z,40.29
2019-06-08T17:58:23.441Z,40.20
2019-06-08T18:00:54.494Z,40.18
2019-06-08T18:03:27.877Z,40.37
2019-06-08T18:05:59.041Z,40.46
2019-06-08T18:08:30.131Z,40.64
2019-06-08T18:11:01.217Z,40.57
2019-06-08T18:13:32.303Z,40.67
2019-06-08T18:16:03.393Z,40.85
2019-06-08T18:18:34.503Z,40.76
2019-06-08T18:21:07.976Z,40.77
2019-06-08T18:23:40.377Z,40.88
2019-06-08T18:26:11.376Z,40.90
2019-06-08T18:28:44.087Z,40.90
2019-06-08T18:31:15.377Z,40.85
2019-06-08T18:33:50.083Z,40.62
2019-06-08T18:36:19.295Z,40.63
2019-06-08T18:38:50.360Z,40.56
2019-06-08T18:41:21.578Z,40.81
2019-06-08T18:43:53.746Z,40.85
2019-06-08T18:46:27.078Z,41.10
2019-06-08T18:48:58.009Z,41.36
2019-06-08T18:51:29.124Z,41.84
2019-06-08T18:54:11.337Z,42.13
2019-06-08T18:56:32.966Z,42.52
2019-06-08T18:59:04.020Z,42.70
2019-06-08T19:01:38.876Z,42.98
2019-06-08T19:04:09.833Z,43.16
2019-06-08T19:06:42.296Z,43.30
2019-06-08T19:09:13.680Z,43.43
2019-06-08T19:11:46.344Z,43.65
2019-06-08T19:14:17.952Z,43.68
2019-06-08T19:16:54.464Z,43.62
2019-06-08T19:19:23.196Z,43.73
2019-06-08T19:21:54.285Z,43.88
2019-06-08T19:24:25.338Z,44.00
2019-06-08T19:26:57.843Z,44.04
2019-06-08T19:29:29.218Z,44.08
2019-06-08T19:32:00.752Z,44.16
2019-06-08T19:34:33.351Z,44.09
2019-06-08T19:37:04.690Z,44.30
2019-06-08T19:39:35.763Z,44.34
2019-06-08T19:42:07.986Z,44.53
2019-06-08T19:44:44.821Z,44.62
2019-06-08T19:47:11.935Z,44.67
2019-06-08T19:49:43.009Z,44.85
2019-06-08T19:52:14.091Z,44.90
2019-06-08T19:54:47.084Z,45.01
2019-06-08T19:57:17.947Z,45.03
2019-06-08T19:59:49.653Z,45.04
2019-06-08T20:02:20.775Z,45.02
2019-06-08T20:04:53.115Z,45.13
2019-06-08T20:07:24.683Z,45.16
2019-06-08T20:09:57.143Z,45.30
2019-06-08T20:12:28.367Z,45.35
2019-06-08T20:14:59.450Z,45.36
2019-06-08T20:17:30.526Z,45.48
2019-06-08T20:20:01.609Z,45.48
2019-06-08T20:22:32.689Z,45.57
2019-06-08T20:25:09.685Z,45.53
2019-06-08T20:27:37.339Z,45.52
2019-06-08T20:30:12.277Z,45.56
2019-06-08T20:32:44.443Z,45.52
2019-06-08T20:35:17.438Z,45.68
2019-06-08T20:37:49.878Z,45.73
2019-06-08T20:40:21.132Z,45.74
2019-06-08T20:42:54.581Z,45.77
2019-06-08T20:45:24.954Z,46.02
2019-06-08T20:47:58.218Z,45.98
2019-06-08T20:50:28.793Z,46.07
2019-06-08T20:52:59.879Z,46.03
2019-06-08T20:55:30.941Z,46.11
2019-06-08T20:58:08.019Z,46.17
2019-06-08T21:00:38.860Z,46.16
2019-06-08T21:03:09.935Z,46.36
2019-06-08T21:05:41.069Z,46.50
2019-06-08T21:08:12.150Z,46.55
2019-06-08T21:10:44.264Z,46.59
2019-06-08T21:13:17.945Z,46.63
2019-06-08T21:15:52.637Z,46.63
2019-06-08T21:18:21.567Z,46.61
2019-06-08T21:20:53.129Z,46.58
2019-06-08T21:23:24.295Z,46.64
2019-06-08T21:25:59.254Z,46.63
2019-06-08T21:28:28.154Z,46.57
2019-06-08T21:31:02.174Z,46.58
2019-06-08T21:33:32.036Z,46.64
2019-06-08T21:36:05.149Z,46.62
2019-06-08T21:38:37.717Z,46.52
2019-06-08T21:41:08.836Z,46.55
2019-06-08T21:43:41.876Z,46.52
2019-06-08T21:46:12.937Z,46.54
2019-06-08T21:48:44.048Z,46.59
2019-06-08T21:51:15.112Z,46.66
2019-06-08T21:53:48.243Z,46.69
2019-06-08T21:56:18.955Z,46.84
2019-06-08T21:59:00.923Z,46.83
2019-06-08T22:01:32.733Z,46.70
2019-06-08T22:04:04.034Z,46.90
2019-06-08T22:06:37.237Z,46.95
2019-06-08T22:09:09.515Z,46.92
2019-06-08T22:11:40.600Z,46.86
2019-06-08T22:14:11.685Z,46.80
2019-06-08T22:16:42.760Z,46.69
2019-06-08T22:19:13.825Z,46.86
2019-06-08T22:21:44.930Z,46.80
2019-06-08T22:24:17.146Z,46.93
2019-06-08T22:26:48.343Z,46.88
2019-06-08T22:29:19.458Z,46.76
2019-06-08T22:31:52.189Z,46.70
2019-06-08T22:34:23.334Z,46.76
2019-06-08T22:36:54.392Z,46.79
2019-06-08T22:39:27.987Z,46.93
2019-06-08T22:42:00.817Z,46.84
2019-06-08T22:44:30.988Z,47.04
2019-06-08T22:47:03.645Z,47.12
2019-06-08T22:49:38.234Z,47.19
2019-06-08T22:52:08.955Z,47.24
2019-06-08T22:54:40.049Z,47.15
2019-06-08T22:57:11.105Z,47.26
2019-06-08T22:59:42.192Z,47.30
2019-06-08T23:02:13.275Z,47.34
2019-06-08T23:04:44.591Z,47.40
2019-06-08T23:07:26.551Z,47.56
2019-06-08T23:09:48.467Z,47.55
2019-06-08T23:12:19.515Z,47.51
2019-06-08T23:14:50.602Z,47.72
2019-06-08T23:17:21.666Z,47.55
2019-06-08T23:19:52.748Z,47.77
2019-06-08T23:22:23.840Z,47.78
2019-06-08T23:24:55.597Z,47.80
2019-06-08T23:27:27.166Z,47.84
2019-06-08T23:30:00.035Z,47.78
2019-06-08T23:32:31.053Z,47.86
2019-06-08T23:35:02.956Z,47.87
2019-06-08T23:37:34.092Z,47.92
2019-06-08T23:40:07.634Z,47.97
2019-06-08T23:42:38.965Z,47.97
2019-06-08T23:45:10.859Z,48.04
2019-06-08T23:47:42.081Z,48.04
2019-06-08T23:50:14.453Z,48.00
2019-06-08T23:52:47.557Z,48.02
2019-06-08T23:55:18.393Z,48.05
2019-06-08T23:57:50.395Z,47.99
